Liaoyang, China
Current Conditions -  °F | °C
As of 2:30 AM on Wednesday 28 Jan 2015 (Local Time) from ZYTX Reporting Station
Clear Clear  
Wind Chill: -14°   Ceiling: Unl
Heat Index: -4°   Visibility: 5mi
Dew Point: -13°   Wind: 4mph
Humidity: 65%   Direction: 40°NE
Pressure: 30.59"   Gusts: NA
Location:  41.28°N, 123.18°E
Report Text: ZYTX 271830Z 04002MPS 8000 NSC M20/M25 Q1036 NOSIG
Loading
Personal Weather Stations






























Interactive Weather Map New forecast layout! Learn more

10-Day Weather Forecast

Advertisements
Track Severe Weather on mobile